createdAt,value
2023-02-24T00:02:01.665Z,43.40
2023-02-24T00:04:35.715Z,45.20
2023-02-24T00:07:03.068Z,38.40
2023-02-24T00:09:31.772Z,46.60
2023-02-24T00:12:06.347Z,40.90
2023-02-24T00:14:36.122Z,45.80
2023-02-24T00:17:03.156Z,40.60
2023-02-24T00:19:34.177Z,42.90
2023-02-24T00:22:03.268Z,48.30
2023-02-24T00:24:30.945Z,42.10
2023-02-24T00:27:07.781Z,41.70
2023-02-24T00:29:41.050Z,38.20
2023-02-24T00:32:12.886Z,45.60
2023-02-24T00:34:41.111Z,45.90
2023-02-24T00:37:08.222Z,46.80
2023-02-24T00:39:36.742Z,42.40
2023-02-24T00:42:06.368Z,46.10
2023-02-24T00:44:55.270Z,46.40
2023-02-24T00:47:22.639Z,43.20
2023-02-24T00:49:50.500Z,43.40
2023-02-24T00:52:21.032Z,45.50
2023-02-24T00:54:49.878Z,43.40
2023-02-24T00:57:21.739Z,44.20
2023-02-24T00:59:51.964Z,51.70
2023-02-24T01:02:19.056Z,43.60
2023-02-24T01:04:46.564Z,42.10
2023-02-24T01:07:14.461Z,46.00
2023-02-24T01:09:43.120Z,48.80
2023-02-24T01:12:30.851Z,46.40
2023-02-24T01:14:57.691Z,46.50
2023-02-24T01:17:25.610Z,47.50
2023-02-24T01:19:55.279Z,48.70
2023-02-24T01:24:51.137Z,48.40
2023-02-24T01:27:19.565Z,44.00
2023-02-24T01:29:48.063Z,53.20
2023-02-24T01:32:21.788Z,50.60
2023-02-24T01:34:52.333Z,44.60
2023-02-24T01:37:20.428Z,49.50
2023-02-24T01:39:47.717Z,47.40
2023-02-24T01:42:19.895Z,51.90
2023-02-24T01:44:46.933Z,50.80
2023-02-24T01:47:18.667Z,46.60
2023-02-24T01:49:49.205Z,43.40
2023-02-24T01:52:31.665Z,47.30
2023-02-24T01:55:01.817Z,53.60
2023-02-24T02:00:11.345Z,45.10
2023-02-24T02:02:45.954Z,48.80
2023-02-24T02:05:13.974Z,46.50
2023-02-24T02:07:41.953Z,51.50
2023-02-24T02:10:10.333Z,57.30
2023-02-24T02:12:45.875Z,47.80
2023-02-24T02:15:15.366Z,49.70
2023-02-24T02:17:55.210Z,50.60
2023-02-24T02:20:57.089Z,53.00
2023-02-24T02:24:01.563Z,56.20
2023-02-24T02:26:40.637Z,57.90
2023-02-24T02:29:23.285Z,52.50
2023-02-24T02:32:05.836Z,52.30
2023-02-24T02:34:48.940Z,49.80
2023-02-24T02:37:26.967Z,54.90
2023-02-24T02:40:21.040Z,50.20
2023-02-24T02:43:02.288Z,60.50
2023-02-24T02:46:11.283Z,52.80
2023-02-24T02:48:38.142Z,55.30
2023-02-24T02:51:17.126Z,58.50
2023-02-24T02:53:59.469Z,63.30
2023-02-24T02:56:47.276Z,55.60
2023-02-24T02:59:22.712Z,54.60
2023-02-24T03:01:55.595Z,58.00
2023-02-24T03:04:25.522Z,51.70
2023-02-24T03:06:59.767Z,55.00
2023-02-24T03:09:31.480Z,50.40
2023-02-24T03:12:08.515Z,54.60
2023-02-24T03:14:39.951Z,55.30
2023-02-24T03:17:22.463Z,55.90
2023-02-24T03:20:00.609Z,55.30
2023-02-24T03:22:42.621Z,53.20
2023-02-24T03:25:10.840Z,54.10
2023-02-24T03:27:49.740Z,55.70
2023-02-24T03:30:27.031Z,52.70
2023-02-24T03:33:08.525Z,57.10
2023-02-24T03:35:42.349Z,57.70
2023-02-24T03:38:10.601Z,53.70
2023-02-24T03:40:39.457Z,57.20
2023-02-24T03:43:09.234Z,52.10
2023-02-24T03:45:38.974Z,58.20
2023-02-24T03:48:08.803Z,58.20
2023-02-24T03:50:38.336Z,57.70
2023-02-24T03:53:22.781Z,61.50
2023-02-24T03:55:59.090Z,64.90
2023-02-24T03:58:47.313Z,62.30
2023-02-24T04:01:14.255Z,60.70
2023-02-24T04:04:16.733Z,57.50
2023-02-24T04:06:58.541Z,59.80
2023-02-24T04:09:57.729Z,66.60
2023-02-24T04:12:30.630Z,61.60
2023-02-24T04:15:10.332Z,67.50
2023-02-24T04:17:59.168Z,62.60
2023-02-24T04:20:32.538Z,64.90
2023-02-24T04:23:04.744Z,65.00
2023-02-24T04:25:32.655Z,62.50
2023-02-24T04:28:02.128Z,60.20
2023-02-24T04:33:02.252Z,62.20
2023-02-24T04:35:29.390Z,65.60
2023-02-24T04:37:57.055Z,70.20
2023-02-24T04:40:24.236Z,62.20
2023-02-24T04:42:53.492Z,66.30
2023-02-24T04:45:23.664Z,65.20
2023-02-24T04:47:56.385Z,65.60
2023-02-24T04:50:26.372Z,62.60
2023-02-24T04:55:24.801Z,67.30
2023-02-24T04:57:55.458Z,75.00
2023-02-24T05:00:23.395Z,69.50
2023-02-24T05:02:51.348Z,67.20
2023-02-24T05:05:28.734Z,67.80
2023-02-24T05:08:06.538Z,68.10
2023-02-24T05:10:45.780Z,64.40
2023-02-24T05:13:32.267Z,67.80
2023-02-24T05:16:08.001Z,67.80
2023-02-24T05:18:38.159Z,68.50
2023-02-24T05:21:26.997Z,72.90
2023-02-24T05:23:55.472Z,67.10
2023-02-24T05:26:25.778Z,66.90
2023-02-24T05:28:55.026Z,69.90
2023-02-24T05:31:28.492Z,68.70
2023-02-24T05:33:58.129Z,69.60
2023-02-24T05:36:27.751Z,70.20
2023-02-24T05:38:59.162Z,66.50
2023-02-24T05:41:36.159Z,71.10
2023-02-24T05:44:08.713Z,73.60
2023-02-24T05:46:42.099Z,77.20
2023-02-24T05:49:15.105Z,76.20
2023-02-24T05:51:54.916Z,68.40
2023-02-24T05:54:29.182Z,72.80
2023-02-24T05:57:00.301Z,74.50
2023-02-24T05:59:32.902Z,71.80
2023-02-24T06:02:07.517Z,69.60
2023-02-24T06:04:39.702Z,71.70
2023-02-24T06:07:14.013Z,67.90
2023-02-24T06:09:45.272Z,62.30
2023-02-24T06:12:15.979Z,73.60
2023-02-24T06:14:43.385Z,68.60
2023-02-24T06:17:10.240Z,67.80
2023-02-24T06:19:37.460Z,72.80
2023-02-24T06:22:06.845Z,67.60
2023-02-24T06:24:33.654Z,68.60
2023-02-24T06:27:09.875Z,67.80
2023-02-24T06:29:39.753Z,67.20
2023-02-24T06:34:39.848Z,69.60
2023-02-24T06:37:08.489Z,70.40
2023-02-24T06:39:36.751Z,69.30
2023-02-24T06:42:05.311Z,74.00
2023-02-24T06:44:34.010Z,64.30
2023-02-24T06:47:00.948Z,68.10
2023-02-24T06:49:29.050Z,66.20
2023-02-24T06:51:57.766Z,72.00
2023-02-24T06:54:28.585Z,69.50
2023-02-24T06:56:58.801Z,69.90
2023-02-24T06:59:29.216Z,67.10
2023-02-24T07:01:58.332Z,67.60
2023-02-24T07:04:28.416Z,66.20
2023-02-24T07:07:03.188Z,69.10
2023-02-24T07:09:31.500Z,69.20
2023-02-24T07:12:01.362Z,72.90
2023-02-24T07:14:31.931Z,63.60
2023-02-24T07:17:00.413Z,65.80
2023-02-24T07:19:30.308Z,66.30
2023-02-24T07:22:03.310Z,62.90
2023-02-24T07:24:33.719Z,67.00
2023-02-24T07:27:05.604Z,68.50
2023-02-24T07:29:34.385Z,67.50
2023-02-24T07:32:05.821Z,71.30
2023-02-24T07:34:34.196Z,63.00
2023-02-24T07:37:08.393Z,66.20
2023-02-24T07:39:37.722Z,62.20
2023-02-24T07:42:07.745Z,67.00
2023-02-24T07:44:44.706Z,63.00
2023-02-24T07:47:11.781Z,63.40
2023-02-24T07:49:41.292Z,64.80
2023-02-24T07:52:09.559Z,62.80
2023-02-24T07:54:39.666Z,62.00
2023-02-24T07:57:14.388Z,63.80
2023-02-24T07:59:47.898Z,59.90
2023-02-24T08:02:16.116Z,61.90
2023-02-24T08:04:50.545Z,62.70
2023-02-24T08:07:25.194Z,59.70
2023-02-24T08:10:14.425Z,58.00
2023-02-24T08:12:43.064Z,61.30
2023-02-24T08:15:17.543Z,61.10
2023-02-24T08:17:47.673Z,59.70
2023-02-24T08:20:15.757Z,58.90
2023-02-24T08:22:46.977Z,57.90
2023-02-24T08:25:19.370Z,59.70
2023-02-24T08:28:12.788Z,60.70
2023-02-24T08:30:47.752Z,51.90
2023-02-24T08:33:23.320Z,52.50
2023-02-24T08:36:01.728Z,50.80
2023-02-24T08:38:40.102Z,52.30
2023-02-24T08:41:13.388Z,61.50
2023-02-24T08:43:40.921Z,57.40
2023-02-24T08:46:14.000Z,57.70
2023-02-24T08:48:45.222Z,70.80
2023-02-24T08:51:28.974Z,62.70
2023-02-24T08:54:01.529Z,63.50
2023-02-24T08:56:34.769Z,73.80
2023-02-24T08:59:07.238Z,97.90
2023-02-24T09:01:37.722Z,65.30
2023-02-24T09:04:12.307Z,74.00
2023-02-24T09:06:44.620Z,51.90
2023-02-24T09:09:18.065Z,55.30
2023-02-24T09:11:47.745Z,64.20
2023-02-24T09:14:26.135Z,128.80
2023-02-24T09:19:52.136Z,64.70
2023-02-24T09:22:31.610Z,47.70
2023-02-24T09:25:33.557Z,83.90
2023-02-24T09:28:19.404Z,58.90
2023-02-24T09:30:54.140Z,55.70
2023-02-24T09:33:29.196Z,62.20
2023-02-24T09:36:09.999Z,51.00
2023-02-24T09:38:57.999Z,36.10
2023-02-24T09:41:54.211Z,37.60
2023-02-24T09:44:41.833Z,49.40
2023-02-24T09:48:02.498Z,36.50
2023-02-24T09:51:01.574Z,45.80
2023-02-24T09:53:29.908Z,37.50
2023-02-24T09:56:06.242Z,39.80
2023-02-24T09:58:51.199Z,36.70
2023-02-24T10:01:33.901Z,32.30
2023-02-24T10:04:23.284Z,35.60
2023-02-24T10:07:04.917Z,35.90
2023-02-24T10:09:40.486Z,36.50
2023-02-24T10:12:17.485Z,36.80
2023-02-24T10:14:51.254Z,40.50
2023-02-24T10:17:23.221Z,36.60
2023-02-24T10:20:00.218Z,35.90
2023-02-24T10:22:50.682Z,38.10
2023-02-24T10:25:39.025Z,37.20
2023-02-24T10:28:12.034Z,36.40
2023-02-24T10:31:35.996Z,36.80
2023-02-24T10:34:08.980Z,37.50
2023-02-24T10:36:36.754Z,45.40
2023-02-24T10:39:20.738Z,43.90
2023-02-24T10:41:57.836Z,36.70
2023-02-24T10:44:36.660Z,32.40
2023-02-24T10:47:14.393Z,33.10
2023-02-24T10:49:59.457Z,33.00
2023-02-24T10:52:58.617Z,34.50
2023-02-24T10:55:50.255Z,38.40
2023-02-24T10:59:01.760Z,32.50
2023-02-24T11:01:52.759Z,34.80
2023-02-24T11:04:33.333Z,28.00
2023-02-24T11:07:10.001Z,35.30
2023-02-24T11:09:52.591Z,27.90
2023-02-24T11:12:43.612Z,31.50
2023-02-24T11:15:41.813Z,29.80
2023-02-24T11:18:19.842Z,30.70
2023-02-24T11:21:09.354Z,27.00
2023-02-24T11:23:39.560Z,27.50
2023-02-24T11:26:17.050Z,25.90
2023-02-24T11:29:20.090Z,23.00
2023-02-24T11:32:22.419Z,26.00
2023-02-24T11:35:22.483Z,26.80
2023-02-24T11:38:28.998Z,24.50
2023-02-24T11:41:28.126Z,20.60
2023-02-24T11:44:20.838Z,19.50
2023-02-24T11:46:54.720Z,17.70
2023-02-24T11:49:30.955Z,16.10
2023-02-24T11:52:01.542Z,10.80
2023-02-24T11:54:38.183Z,10.60
2023-02-24T11:57:16.125Z,12.80
2023-02-24T12:00:06.139Z,9.40
2023-02-24T12:03:07.163Z,11.60
2023-02-24T12:05:44.701Z,11.70
2023-02-24T12:08:35.160Z,9.80
2023-02-24T12:11:26.539Z,9.50
2023-02-24T12:14:16.152Z,10.90
2023-02-24T12:16:48.300Z,11.10
2023-02-24T12:19:23.848Z,11.80
2023-02-24T12:22:03.339Z,12.10
2023-02-24T12:24:30.263Z,8.50
2023-02-24T12:27:26.140Z,12.90
2023-02-24T12:30:23.292Z,10.00
2023-02-24T12:33:05.276Z,10.50
2023-02-24T12:35:38.021Z,9.20
2023-02-24T12:38:33.880Z,9.00
2023-02-24T12:41:19.540Z,9.40
2023-02-24T12:44:01.507Z,8.80
2023-02-24T12:46:35.001Z,13.30
2023-02-24T12:49:12.134Z,16.00
2023-02-24T12:51:49.269Z,7.80
2023-02-24T12:54:27.841Z,8.30
2023-02-24T12:57:15.875Z,8.10
2023-02-24T12:59:43.015Z,8.10
2023-02-24T13:02:39.974Z,7.50
2023-02-24T13:05:27.490Z,7.30
2023-02-24T13:08:17.144Z,7.90
2023-02-24T13:11:22.215Z,8.80
2023-02-24T13:14:11.987Z,11.50
2023-02-24T13:16:39.244Z,9.70
2023-02-24T13:19:29.883Z,8.80
2023-02-24T13:22:05.381Z,8.30
2023-02-24T13:24:33.438Z,9.20
2023-02-24T13:27:45.106Z,8.70
2023-02-24T13:30:12.160Z,9.30
2023-02-24T13:32:42.934Z,11.80
2023-02-24T13:35:15.666Z,10.90
2023-02-24T13:37:45.906Z,10.30
2023-02-24T13:40:26.787Z,31.90
2023-02-24T13:42:57.576Z,12.00
2023-02-24T13:45:42.164Z,10.20
2023-02-24T13:48:47.572Z,13.20
2023-02-24T13:51:17.157Z,16.00
2023-02-24T13:54:11.667Z,14.20
2023-02-24T13:57:04.860Z,13.70
2023-02-24T13:59:44.047Z,18.50
2023-02-24T14:02:11.026Z,16.50
2023-02-24T14:04:45.347Z,14.30
2023-02-24T14:07:37.289Z,44.20
2023-02-24T14:10:14.878Z,20.50
2023-02-24T14:12:43.512Z,42.60
2023-02-24T14:15:16.017Z,29.80
2023-02-24T14:17:43.286Z,12.60
2023-02-24T14:20:13.636Z,33.50
2023-02-24T14:22:45.972Z,66.80
2023-02-24T14:25:14.186Z,41.30
2023-02-24T14:27:44.483Z,61.00
2023-02-24T14:30:35.378Z,59.20
2023-02-24T14:33:03.842Z,44.60
2023-02-24T14:35:35.069Z,27.70
2023-02-24T14:38:02.962Z,27.90
2023-02-24T14:40:30.243Z,51.30
2023-02-24T14:42:57.990Z,18.70
2023-02-24T14:45:28.538Z,19.60
2023-02-24T14:47:57.015Z,19.10
2023-02-24T14:50:34.872Z,17.70
2023-02-24T14:53:15.768Z,19.40
2023-02-24T14:55:50.326Z,88.60
2023-02-24T14:58:27.849Z,41.80
2023-02-24T15:01:03.846Z,30.90
2023-02-24T15:03:35.482Z,24.00
2023-02-24T15:06:09.448Z,63.60
2023-02-24T15:08:44.448Z,35.80
2023-02-24T15:11:17.559Z,25.20
2023-02-24T15:13:52.691Z,17.20
2023-02-24T15:16:23.048Z,40.10
2023-02-24T15:18:56.439Z,76.50
2023-02-24T15:21:43.266Z,117.40
2023-02-24T15:24:25.496Z,85.00
2023-02-24T15:27:15.571Z,143.50
2023-02-24T15:29:44.069Z,36.00
2023-02-24T15:32:21.547Z,63.10
2023-02-24T15:34:48.803Z,88.20
2023-02-24T15:37:23.593Z,79.90
2023-02-24T15:39:56.191Z,69.90
2023-02-24T15:42:33.998Z,122.50
2023-02-24T15:45:24.869Z,99.40
2023-02-24T15:47:56.120Z,26.70
2023-02-24T15:50:23.946Z,50.90
2023-02-24T15:52:51.073Z,51.90
2023-02-24T15:55:28.863Z,58.20
2023-02-24T15:58:03.833Z,38.70
2023-02-24T16:00:31.634Z,64.10
2023-02-24T16:02:59.461Z,77.80
2023-02-24T16:05:26.938Z,53.20
2023-02-24T16:07:55.143Z,27.50
2023-02-24T16:10:28.892Z,37.20
2023-02-24T16:13:02.874Z,61.00
2023-02-24T16:15:34.119Z,44.90
2023-02-24T16:18:04.830Z,27.60
2023-02-24T16:20:32.029Z,24.80
2023-02-24T16:23:04.126Z,23.70
2023-02-24T16:25:41.203Z,39.40
2023-02-24T16:28:16.645Z,112.70
2023-02-24T16:30:44.971Z,57.50
2023-02-24T16:33:14.007Z,61.30
2023-02-24T16:35:45.908Z,49.00
2023-02-24T16:38:18.324Z,43.40
2023-02-24T16:40:50.154Z,47.50
2023-02-24T16:43:17.177Z,45.30
2023-02-24T16:45:45.532Z,42.80
2023-02-24T16:48:21.965Z,40.20
2023-02-24T16:50:49.139Z,36.70
2023-02-24T16:53:20.058Z,35.00
2023-02-24T16:55:47.688Z,39.70
2023-02-24T16:58:15.495Z,45.90
2023-02-24T17:00:45.953Z,32.00
2023-02-24T17:03:26.486Z,39.40
2023-02-24T17:05:54.155Z,40.70
2023-02-24T17:08:21.427Z,49.50
2023-02-24T17:10:49.458Z,38.70
2023-02-24T17:13:20.009Z,29.80
2023-02-24T17:15:47.682Z,29.00
2023-02-24T17:18:14.599Z,22.40
2023-02-24T17:20:42.621Z,18.10
2023-02-24T17:23:11.578Z,20.10
2023-02-24T17:25:38.745Z,21.80
2023-02-24T17:28:06.566Z,18.20
2023-02-24T17:30:35.303Z,18.60
2023-02-24T17:33:03.077Z,17.20
2023-02-24T17:35:30.012Z,16.40
2023-02-24T17:37:57.076Z,21.40
2023-02-24T17:40:24.550Z,20.10
2023-02-24T17:42:52.224Z,18.50
2023-02-24T17:45:20.159Z,19.20
2023-02-24T17:47:47.157Z,19.00
2023-02-24T17:50:14.391Z,21.20
2023-02-24T17:52:41.728Z,17.40
2023-02-24T17:55:09.509Z,25.90
2023-02-24T17:57:37.088Z,19.10
2023-02-24T18:00:05.222Z,18.40
2023-02-24T18:02:40.052Z,20.10
2023-02-24T18:05:08.123Z,22.50
2023-02-24T18:07:35.333Z,20.70
2023-02-24T18:10:02.808Z,18.90
2023-02-24T18:12:30.364Z,20.90
2023-02-24T18:15:07.857Z,16.80
2023-02-24T18:17:37.618Z,22.20
2023-02-24T18:20:07.173Z,22.50
2023-02-24T18:22:35.287Z,25.50
2023-02-24T18:25:02.322Z,21.00
2023-02-24T18:27:29.333Z,23.70
2023-02-24T18:29:56.275Z,26.80
2023-02-24T18:32:23.408Z,26.70
2023-02-24T18:34:50.421Z,25.30
2023-02-24T18:37:18.358Z,29.00
2023-02-24T18:39:45.184Z,33.50
2023-02-24T18:42:12.147Z,27.60
2023-02-24T18:44:39.132Z,35.60
2023-02-24T18:47:09.835Z,33.70
2023-02-24T18:49:37.916Z,33.80
2023-02-24T18:52:05.728Z,26.40
2023-02-24T18:54:33.995Z,29.70
2023-02-24T18:57:02.091Z,35.40
2023-02-24T18:59:29.542Z,37.20
2023-02-24T19:01:57.234Z,34.00
2023-02-24T19:04:25.314Z,28.20
2023-02-24T19:06:52.537Z,72.50
2023-02-24T19:09:22.041Z,167.20
2023-02-24T19:11:50.443Z,98.60
2023-02-24T19:14:18.059Z,45.80
2023-02-24T19:16:45.557Z,42.50
2023-02-24T19:19:14.889Z,42.60
2023-02-24T19:21:45.799Z,156.60
2023-02-24T19:24:14.239Z,276.20
2023-02-24T19:26:43.987Z,260.10
2023-02-24T19:29:11.813Z,38.40
2023-02-24T19:31:39.822Z,28.90
2023-02-24T19:34:10.455Z,25.80
2023-02-24T19:36:38.352Z,20.80
2023-02-24T19:39:08.988Z,23.20
2023-02-24T19:41:37.174Z,22.60
2023-02-24T19:44:04.624Z,23.00
2023-02-24T19:46:34.342Z,26.40
2023-02-24T19:49:01.730Z,19.90
2023-02-24T19:51:29.406Z,97.00
2023-02-24T19:53:59.153Z,64.20
2023-02-24T19:56:28.620Z,30.00
2023-02-24T19:58:57.677Z,25.00
2023-02-24T20:01:27.116Z,22.60
2023-02-24T20:03:56.718Z,20.30
2023-02-24T20:06:32.346Z,22.30
2023-02-24T20:09:01.233Z,22.20
2023-02-24T20:11:33.095Z,24.30
2023-02-24T20:13:59.995Z,96.10
2023-02-24T20:16:32.503Z,129.50
2023-02-24T20:19:00.334Z,67.80
2023-02-24T20:21:28.118Z,36.20
2023-02-24T20:23:55.051Z,44.60
2023-02-24T20:26:22.534Z,61.80
2023-02-24T20:28:49.728Z,49.50
2023-02-24T20:31:22.285Z,86.60
2023-02-24T20:33:50.691Z,30.80
2023-02-24T20:36:24.761Z,27.50
2023-02-24T20:38:53.089Z,29.30
2023-02-24T20:41:21.487Z,32.00
2023-02-24T20:43:49.530Z,31.10
2023-02-24T20:46:26.113Z,35.20
2023-02-24T20:48:57.533Z,39.20
2023-02-24T20:51:26.154Z,35.20
2023-02-24T20:53:58.306Z,39.50
2023-02-24T20:56:33.208Z,33.70
2023-02-24T20:59:05.545Z,36.20
2023-02-24T21:01:34.029Z,35.80
2023-02-24T21:04:02.361Z,36.80
2023-02-24T21:06:29.777Z,37.70
2023-02-24T21:08:57.950Z,35.70
2023-02-24T21:11:25.968Z,38.10
2023-02-24T21:13:53.589Z,35.30
2023-02-24T21:16:21.917Z,37.80
2023-02-24T21:18:50.970Z,41.50
2023-02-24T21:21:19.779Z,40.60
2023-02-24T21:23:47.870Z,41.00
2023-02-24T21:26:15.930Z,47.60
2023-02-24T21:28:42.972Z,41.90
2023-02-24T21:31:16.938Z,37.50
2023-02-24T21:33:44.417Z,45.30
2023-02-24T21:36:14.530Z,46.80
2023-02-24T21:38:41.628Z,52.70
2023-02-24T21:41:15.919Z,48.00
2023-02-24T21:43:44.515Z,41.70
2023-02-24T21:46:13.620Z,43.00
2023-02-24T21:48:42.178Z,46.30
2023-02-24T21:51:12.807Z,48.20
2023-02-24T21:53:43.762Z,45.80
2023-02-24T21:56:17.076Z,44.20
2023-02-24T21:58:49.969Z,41.10
2023-02-24T22:01:23.561Z,35.90
2023-02-24T22:03:54.643Z,41.30
2023-02-24T22:06:22.629Z,37.00
2023-02-24T22:08:49.728Z,37.80
2023-02-24T22:11:18.239Z,38.30
2023-02-24T22:13:46.916Z,37.80
2023-02-24T22:16:20.565Z,39.40
2023-02-24T22:18:51.770Z,42.80
2023-02-24T22:21:21.796Z,39.90
2023-02-24T22:26:17.606Z,52.30
2023-02-24T22:28:47.066Z,52.70
2023-02-24T22:31:16.940Z,55.30
2023-02-24T22:33:45.733Z,58.70
2023-02-24T22:36:25.449Z,58.60
2023-02-24T22:38:54.542Z,54.50
2023-02-24T22:41:24.863Z,56.10
2023-02-24T22:43:52.282Z,56.40
2023-02-24T22:46:23.884Z,52.30
2023-02-24T22:48:51.883Z,57.70
2023-02-24T22:51:19.723Z,54.20
2023-02-24T22:53:49.304Z,49.70
2023-02-24T22:56:19.237Z,50.70
2023-02-24T22:58:46.690Z,52.10
2023-02-24T23:01:20.157Z,54.00
2023-02-24T23:03:47.344Z,46.90
2023-02-24T23:06:17.924Z,48.10
2023-02-24T23:08:47.194Z,46.40
2023-02-24T23:11:20.364Z,44.80
2023-02-24T23:13:50.481Z,49.30
2023-02-24T23:16:22.183Z,42.40
2023-02-24T23:18:54.223Z,45.20
2023-02-24T23:21:23.954Z,45.60
2023-02-24T23:23:57.135Z,44.90
2023-02-24T23:26:38.549Z,49.20
2023-02-24T23:29:06.745Z,49.70
2023-02-24T23:31:34.432Z,47.20
2023-02-24T23:34:07.322Z,47.20
2023-02-24T23:36:41.034Z,49.50
2023-02-24T23:39:09.283Z,45.90
2023-02-24T23:41:38.697Z,46.20
2023-02-24T23:44:06.234Z,42.50
2023-02-24T23:46:35.026Z,44.40
2023-02-24T23:49:02.677Z,38.70
2023-02-24T23:51:46.985Z,43.10
2023-02-24T23:54:16.802Z,37.90
2023-02-24T23:56:43.978Z,35.90
2023-02-24T23:59:12.149Z,37.40
